메인 페이지
METAR-TAF:

METAR-TAF

공항 :

괄리오르, 인도

위도: 26-17-36N, 경도: 78-13-40E, 고도: 188m

현재 날씨관측

예보는 25분 전, 00:00시(UTC)에 발표되었습니다.
2kt
온도 26°C
습도 94%
기압 1005 hPa
시정: 4000m
고도 2000ft 상공 구름 조금
고도 2500ft 상공 구름 보통
고도 8000ft 상공 구름 많음
연무

METAR: VIGR 220000Z 09002KT 4000 HZ FEW020 SCT025 BKN080 26/25 Q1005

시각: 05:55 (00:25 UTC)


TAF: 누락

4,000개 이상의 공항 관측 자료 및 예보 (METAR 및 TAF 보고).

지도상에서 검색 가능한 기상관측소가 노란 점과 빨간 점으로 표시되어 있습니다.

기상관측소 명을 보려면 표시 위로 마우스를 이동하세요.

날씨 관측과 예보를 보려면 클릭하세요.

지도 변경 : 확대하려면 엑스 표시가 있는 녹색 버튼, 축소하려면 빼기 표시가 있는 녹색 버튼, 다음 페이지의 지도를 보려면 녹색 화살표를 클릭하세요.


METAR-TAF: